createdAt,value
2018-08-30T00:01:25.256Z,60.72
2018-08-30T00:03:53.592Z,59.77
2018-08-30T00:06:21.081Z,60.98
2018-08-30T00:08:48.700Z,59.93
2018-08-30T00:11:16.340Z,60.06
2018-08-30T00:13:44.897Z,60.68
2018-08-30T00:16:12.508Z,60.63
2018-08-30T00:18:40.204Z,60.31
2018-08-30T00:21:07.995Z,59.55
2018-08-30T00:23:34.623Z,59.19
2018-08-30T00:26:01.341Z,60.15
2018-08-30T00:28:27.982Z,59.40
2018-08-30T00:30:54.624Z,60.18
2018-08-30T00:33:21.265Z,60.10
2018-08-30T00:35:48.776Z,59.89
2018-08-30T00:38:15.428Z,59.61
2018-08-30T00:40:43.748Z,59.65
2018-08-30T00:43:11.209Z,60.34
2018-08-30T00:45:38.697Z,60.56
2018-08-30T00:48:06.337Z,60.10
2018-08-30T00:50:33.949Z,59.53
2018-08-30T00:53:01.531Z,60.59
2018-08-30T00:55:29.140Z,59.19
2018-08-30T00:57:57.017Z,59.59
2018-08-30T01:00:24.556Z,59.71
2018-08-30T01:02:53.608Z,59.71
2018-08-30T01:05:20.328Z,59.74
2018-08-30T01:07:47.839Z,59.79
2018-08-30T01:10:15.623Z,59.61
2018-08-30T01:12:48.744Z,59.27
2018-08-30T01:15:16.258Z,59.10
2018-08-30T01:17:45.000Z,59.44
2018-08-30T01:20:12.500Z,59.46
2018-08-30T01:22:40.157Z,59.69
2018-08-30T01:25:07.944Z,58.88
2018-08-30T01:27:35.477Z,59.06
2018-08-30T01:30:03.224Z,58.89
2018-08-30T01:32:30.772Z,59.31
2018-08-30T01:34:58.389Z,58.68
2018-08-30T01:37:25.996Z,59.69
2018-08-30T01:39:53.635Z,59.83
2018-08-30T01:42:21.247Z,59.01
2018-08-30T01:44:48.728Z,59.09
2018-08-30T01:47:15.379Z,59.53
2018-08-30T01:49:43.904Z,59.97
2018-08-30T01:52:10.541Z,59.41
2018-08-30T01:54:38.135Z,58.92
2018-08-30T01:57:05.700Z,59.24
2018-08-30T01:59:33.469Z,58.76
2018-08-30T02:02:00.118Z,59.50
2018-08-30T02:04:26.800Z,59.28
2018-08-30T02:06:55.368Z,58.90
2018-08-30T02:09:24.068Z,58.71
2018-08-30T02:11:51.642Z,58.59
2018-08-30T02:14:19.216Z,58.71
2018-08-30T02:16:46.864Z,57.85
2018-08-30T02:19:15.988Z,59.50
2018-08-30T02:21:44.680Z,59.70
2018-08-30T02:24:12.256Z,58.45
2018-08-30T02:26:39.868Z,58.09
2018-08-30T02:29:07.472Z,58.24
2018-08-30T02:31:35.130Z,58.57
2018-08-30T02:34:02.739Z,59.85
2018-08-30T02:36:30.516Z,60.12
2018-08-30T02:38:57.174Z,59.63
2018-08-30T02:41:24.681Z,59.21
2018-08-30T02:43:52.297Z,58.62
2018-08-30T02:46:20.004Z,57.17
2018-08-30T02:48:47.775Z,57.58
2018-08-30T02:51:16.514Z,58.55
2018-08-30T02:53:45.021Z,58.19
2018-08-30T02:56:11.995Z,58.44
2018-08-30T02:58:39.668Z,58.89
2018-08-30T03:01:07.369Z,58.20
2018-08-30T03:03:34.968Z,57.74
2018-08-30T03:06:02.560Z,57.41
2018-08-30T03:08:30.182Z,58.88
2018-08-30T03:10:57.845Z,58.29
2018-08-30T03:13:24.504Z,59.85
2018-08-30T03:15:51.157Z,58.91
2018-08-30T03:18:18.788Z,58.73
2018-08-30T03:20:46.428Z,58.64
2018-08-30T03:23:15.467Z,58.32
2018-08-30T03:25:44.193Z,58.61
2018-08-30T03:28:10.864Z,57.38
2018-08-30T03:30:38.459Z,58.92
2018-08-30T03:33:05.928Z,58.23
2018-08-30T03:35:33.556Z,57.71
2018-08-30T03:38:01.157Z,58.06
2018-08-30T03:40:28.741Z,57.59
2018-08-30T03:42:56.420Z,57.72
2018-08-30T03:45:24.133Z,58.54
2018-08-30T03:47:50.780Z,58.42
2018-08-30T03:50:18.349Z,58.76
2018-08-30T03:52:44.980Z,58.00
2018-08-30T03:55:12.740Z,58.87
2018-08-30T03:57:40.275Z,59.03
2018-08-30T04:00:08.041Z,57.31
2018-08-30T04:02:35.527Z,57.79
2018-08-30T04:05:03.208Z,58.66
2018-08-30T04:07:30.854Z,56.77
2018-08-30T04:09:58.491Z,57.67
2018-08-30T04:12:26.086Z,57.58
2018-08-30T04:14:53.732Z,57.72
2018-08-30T04:17:20.762Z,58.03
2018-08-30T04:19:48.328Z,58.11
2018-08-30T04:22:15.997Z,57.79
2018-08-30T04:24:44.617Z,58.16
2018-08-30T04:27:12.361Z,58.67
2018-08-30T04:29:39.013Z,58.40
2018-08-30T04:32:05.646Z,58.86
2018-08-30T04:34:33.138Z,58.78
2018-08-30T04:36:59.790Z,58.07
2018-08-30T04:39:27.412Z,58.57
2018-08-30T04:41:55.005Z,58.76
2018-08-30T04:44:21.639Z,58.39
2018-08-30T04:46:48.269Z,58.48
2018-08-30T04:49:15.940Z,57.64
2018-08-30T04:51:42.584Z,57.82
2018-08-30T04:54:09.221Z,57.86
2018-08-30T04:56:36.756Z,58.53
2018-08-30T04:59:03.405Z,57.79
2018-08-30T05:01:30.032Z,57.54
2018-08-30T05:03:57.674Z,57.89
2018-08-30T05:06:24.314Z,57.54
2018-08-30T05:08:50.951Z,56.81
2018-08-30T05:11:17.611Z,58.33
2018-08-30T05:13:45.101Z,58.38
2018-08-30T05:16:11.748Z,57.75
2018-08-30T05:18:38.867Z,57.41
2018-08-30T05:21:05.498Z,57.50
2018-08-30T05:23:32.140Z,57.43
2018-08-30T05:25:58.792Z,56.76
2018-08-30T05:28:25.440Z,56.81
2018-08-30T05:30:52.839Z,56.73
2018-08-30T05:33:20.296Z,57.15
2018-08-30T05:35:49.284Z,56.56
2018-08-30T05:38:16.884Z,57.41
2018-08-30T05:40:45.552Z,56.70
2018-08-30T05:43:12.232Z,57.65
2018-08-30T05:45:39.697Z,57.73
2018-08-30T05:48:06.352Z,58.57
2018-08-30T05:50:33.844Z,57.62
2018-08-30T05:53:01.324Z,57.60
2018-08-30T05:55:28.905Z,58.19
2018-08-30T05:57:56.516Z,58.37
2018-08-30T06:00:24.130Z,59.25
2018-08-30T06:02:51.725Z,58.96
2018-08-30T06:05:18.401Z,59.51
2018-08-30T06:07:45.973Z,59.39
2018-08-30T06:10:14.344Z,58.60
2018-08-30T06:12:41.936Z,58.73
2018-08-30T06:15:09.580Z,59.47
2018-08-30T06:17:37.083Z,58.46
2018-08-30T06:20:04.669Z,58.68
2018-08-30T06:22:31.349Z,59.48
2018-08-30T06:24:58.929Z,58.51
2018-08-30T06:27:26.617Z,59.54
2018-08-30T06:29:54.136Z,59.45
2018-08-30T06:32:21.899Z,59.56
2018-08-30T06:34:49.466Z,58.97
2018-08-30T06:37:17.186Z,58.92
2018-08-30T06:39:44.728Z,59.73
2018-08-30T06:42:12.220Z,58.96
2018-08-30T06:44:38.900Z,59.30
2018-08-30T06:47:06.431Z,59.95
2018-08-30T06:49:33.135Z,59.21
2018-08-30T06:52:00.761Z,60.12
2018-08-30T06:54:28.356Z,59.57
2018-08-30T06:56:54.985Z,59.54
2018-08-30T06:59:24.224Z,58.95
2018-08-30T07:01:51.832Z,59.72
2018-08-30T07:04:19.653Z,59.40
2018-08-30T07:06:47.178Z,60.24
2018-08-30T07:09:14.825Z,59.49
2018-08-30T07:11:42.424Z,60.38
2018-08-30T07:14:09.117Z,59.31
2018-08-30T07:16:36.776Z,59.29
2018-08-30T07:19:04.420Z,59.43
2018-08-30T07:21:32.233Z,60.12
2018-08-30T07:23:59.776Z,59.57
2018-08-30T07:26:27.218Z,60.20
2018-08-30T07:28:54.780Z,60.18
2018-08-30T07:31:22.972Z,59.53
2018-08-30T07:33:50.421Z,59.51
2018-08-30T07:36:18.067Z,59.96
2018-08-30T07:38:45.732Z,59.67
2018-08-30T07:41:14.366Z,59.47
2018-08-30T07:43:42.016Z,60.41
2018-08-30T07:46:09.493Z,60.15
2018-08-30T07:48:36.131Z,60.51
2018-08-30T07:51:03.767Z,59.77
2018-08-30T07:53:31.344Z,60.48
2018-08-30T07:55:58.941Z,60.18
2018-08-30T07:58:26.609Z,60.37
2018-08-30T08:00:54.227Z,59.85
2018-08-30T08:03:21.882Z,60.66
2018-08-30T08:05:50.439Z,59.65
2018-08-30T08:08:17.079Z,60.34
2018-08-30T08:10:44.387Z,60.47
2018-08-30T08:13:11.081Z,59.77
2018-08-30T08:15:37.732Z,59.65
2018-08-30T08:18:04.368Z,59.62
2018-08-30T08:20:31.013Z,59.97
2018-08-30T08:22:57.649Z,59.76
2018-08-30T08:25:24.440Z,59.62
2018-08-30T08:27:50.998Z,60.46
2018-08-30T08:30:17.628Z,59.58
2018-08-30T08:32:45.064Z,59.80
2018-08-30T08:35:12.732Z,60.00
2018-08-30T08:37:40.417Z,59.91
2018-08-30T08:40:07.148Z,60.70
2018-08-30T08:42:34.708Z,60.66
2018-08-30T08:45:02.264Z,60.01
2018-08-30T08:47:29.864Z,59.79
2018-08-30T08:49:57.577Z,59.92
2018-08-30T08:52:25.063Z,59.86
2018-08-30T08:54:52.536Z,59.97
2018-08-30T08:57:19.221Z,60.25
2018-08-30T08:59:46.876Z,59.95
2018-08-30T09:02:14.928Z,59.94
2018-08-30T09:04:42.568Z,60.01
2018-08-30T09:07:10.272Z,60.68
2018-08-30T09:09:38.011Z,60.75
2018-08-30T09:12:05.460Z,60.73
2018-08-30T09:14:32.172Z,60.97
2018-08-30T09:16:59.625Z,60.57
2018-08-30T09:19:28.103Z,60.17
2018-08-30T09:21:55.672Z,60.00
2018-08-30T09:24:24.352Z,60.11
2018-08-30T09:26:51.954Z,60.89
2018-08-30T09:29:19.541Z,60.32
2018-08-30T09:31:46.213Z,60.90
2018-08-30T09:34:14.772Z,60.09
2018-08-30T09:36:42.418Z,60.20
2018-08-30T09:39:10.114Z,60.89
2018-08-30T09:41:37.864Z,60.29
2018-08-30T09:44:05.548Z,60.20
2018-08-30T09:46:32.986Z,61.02
2018-08-30T09:48:59.685Z,60.35
2018-08-30T09:51:27.261Z,60.71
2018-08-30T09:53:54.745Z,60.25
2018-08-30T09:56:23.387Z,60.12
2018-08-30T09:58:50.979Z,60.58
2018-08-30T10:01:24.196Z,60.10
2018-08-30T10:03:51.699Z,61.06
2018-08-30T10:06:18.352Z,60.38
2018-08-30T10:08:46.006Z,61.08
2018-08-30T10:11:12.648Z,61.03
2018-08-30T10:13:39.296Z,60.29
2018-08-30T10:16:06.525Z,61.09
2018-08-30T10:18:34.137Z,60.35
2018-08-30T10:21:01.780Z,60.34
2018-08-30T10:23:28.513Z,61.06
2018-08-30T10:25:55.169Z,60.35
2018-08-30T10:28:23.489Z,60.51
2018-08-30T10:30:50.956Z,60.29
2018-08-30T10:33:18.802Z,61.28
2018-08-30T10:35:48.150Z,60.94
2018-08-30T10:38:16.035Z,61.22
2018-08-30T10:40:42.678Z,61.23
2018-08-30T10:43:10.169Z,61.25
2018-08-30T10:45:37.788Z,61.05
2018-08-30T10:48:05.384Z,60.50
2018-08-30T10:50:32.986Z,60.31
2018-08-30T10:53:00.528Z,60.75
2018-08-30T10:55:27.169Z,61.29
2018-08-30T10:57:53.890Z,61.15
2018-08-30T11:00:21.461Z,60.42
2018-08-30T11:02:49.069Z,61.18
2018-08-30T11:05:15.741Z,60.25
2018-08-30T11:07:44.013Z,60.32
2018-08-30T11:10:10.649Z,60.51
2018-08-30T11:12:38.196Z,60.45
2018-08-30T11:15:04.868Z,60.49
2018-08-30T11:17:32.496Z,61.26
2018-08-30T11:20:00.180Z,60.63
2018-08-30T11:22:27.888Z,60.50
2018-08-30T11:24:55.511Z,60.52
2018-08-30T11:27:23.889Z,61.22
2018-08-30T11:29:50.565Z,60.61
2018-08-30T11:32:17.189Z,61.19
2018-08-30T11:34:44.496Z,61.11
2018-08-30T11:37:11.144Z,60.61
2018-08-30T11:39:37.852Z,60.81
2018-08-30T11:42:04.504Z,60.53
2018-08-30T11:44:31.166Z,60.43
2018-08-30T11:46:57.796Z,61.37
2018-08-30T11:49:24.464Z,61.31
2018-08-30T11:51:51.107Z,60.68
2018-08-30T11:54:17.764Z,60.68
2018-08-30T11:56:45.366Z,61.22
2018-08-30T11:59:12.000Z,61.23
2018-08-30T12:01:38.722Z,60.84
2018-08-30T12:04:06.819Z,61.29
2018-08-30T12:06:34.405Z,61.49
2018-08-30T12:09:02.442Z,60.95
2018-08-30T12:11:30.033Z,61.55
2018-08-30T12:13:57.640Z,61.59
2018-08-30T12:16:24.352Z,61.71
2018-08-30T12:18:51.458Z,61.08
2018-08-30T12:21:19.109Z,61.60
2018-08-30T12:23:46.781Z,61.36
2018-08-30T12:26:14.529Z,60.98
2018-08-30T12:28:41.311Z,60.88
2018-08-30T12:31:09.280Z,60.80
2018-08-30T12:33:36.824Z,60.88
2018-08-30T12:36:04.550Z,60.98
2018-08-30T12:38:32.171Z,61.69
2018-08-30T12:41:00.087Z,60.93
2018-08-30T12:43:27.949Z,61.64
2018-08-30T12:45:55.452Z,61.90
2018-08-30T12:48:24.090Z,61.90
2018-08-30T12:50:51.675Z,61.66
2018-08-30T12:53:19.253Z,61.84
2018-08-30T12:55:47.661Z,61.55
2018-08-30T12:58:14.391Z,61.81
2018-08-30T13:00:41.783Z,61.79
2018-08-30T13:03:08.561Z,61.86
2018-08-30T13:05:36.195Z,60.94
2018-08-30T13:08:02.977Z,61.66
2018-08-30T13:10:30.597Z,61.69
2018-08-30T13:12:58.217Z,61.70
2018-08-30T13:15:25.943Z,61.56
2018-08-30T13:17:54.056Z,60.91
2018-08-30T13:20:21.595Z,61.16
2018-08-30T13:22:49.274Z,61.86
2018-08-30T13:25:16.993Z,61.02
2018-08-30T13:27:44.439Z,61.69
2018-08-30T13:30:12.471Z,61.69
2018-08-30T13:32:40.008Z,61.01
2018-08-30T13:35:07.674Z,61.80
2018-08-30T13:37:35.176Z,61.91
2018-08-30T13:40:03.058Z,61.67
2018-08-30T13:42:30.359Z,61.75
2018-08-30T13:44:57.915Z,61.75
2018-08-30T13:47:25.470Z,61.80
2018-08-30T13:49:53.874Z,61.89
2018-08-30T13:52:21.812Z,61.90
2018-08-30T13:54:49.091Z,61.82
2018-08-30T13:57:16.075Z,61.92
2018-08-30T13:59:44.498Z,61.89
2018-08-30T14:02:11.913Z,61.11
2018-08-30T14:04:39.460Z,61.88
2018-08-30T14:07:06.957Z,61.26
2018-08-30T14:09:34.681Z,61.82
2018-08-30T14:12:02.364Z,61.44
2018-08-30T14:14:30.073Z,61.85
2018-08-30T14:16:57.456Z,61.22
2018-08-30T14:19:24.727Z,61.80
2018-08-30T14:21:53.468Z,61.00
2018-08-30T14:24:20.916Z,61.73
2018-08-30T14:26:47.656Z,60.97
2018-08-30T14:29:15.264Z,61.11
2018-08-30T14:31:44.075Z,61.96
2018-08-30T14:34:11.461Z,61.68
2018-08-30T14:36:38.422Z,60.89
2018-08-30T14:39:06.032Z,61.53
2018-08-30T14:41:33.534Z,61.26
2018-08-30T14:44:01.185Z,59.63
2018-08-30T14:46:27.825Z,59.54
2018-08-30T14:48:54.463Z,59.71
2018-08-30T14:51:21.166Z,59.93
2018-08-30T14:53:52.179Z,59.47
2018-08-30T14:56:14.534Z,58.65
2018-08-30T14:58:41.152Z,58.90
2018-08-30T15:01:07.785Z,58.52
2018-08-30T15:03:34.411Z,59.34
2018-08-30T15:06:01.170Z,58.69
2018-08-30T15:08:27.892Z,58.99
2018-08-30T15:10:54.400Z,59.06
2018-08-30T15:13:22.026Z,59.00
2018-08-30T15:15:49.850Z,59.65
2018-08-30T15:18:17.424Z,59.57
2018-08-30T15:20:46.152Z,59.56
2018-08-30T15:23:15.184Z,58.90
2018-08-30T15:25:43.721Z,59.73
2018-08-30T15:28:11.404Z,58.80
2018-08-30T15:30:39.069Z,59.27
2018-08-30T15:33:06.651Z,58.97
2018-08-30T15:35:34.305Z,59.67
2018-08-30T15:38:01.908Z,59.53
2018-08-30T15:40:29.529Z,59.29
2018-08-30T15:42:57.100Z,59.90
2018-08-30T15:45:24.722Z,59.63
2018-08-30T15:47:52.354Z,59.24
2018-08-30T15:50:20.608Z,59.69
2018-08-30T15:52:47.983Z,59.75
2018-08-30T15:55:15.565Z,60.17
2018-08-30T15:57:44.122Z,60.20
2018-08-30T16:00:11.641Z,59.41
2018-08-30T16:02:39.145Z,60.10
2018-08-30T16:05:06.759Z,59.83
2018-08-30T16:07:34.385Z,59.56
2018-08-30T16:10:02.142Z,59.63
2018-08-30T16:12:29.712Z,59.39
2018-08-30T16:14:57.188Z,60.17
2018-08-30T16:17:24.915Z,60.08
2018-08-30T16:19:52.372Z,60.00
2018-08-30T16:22:22.160Z,60.13
2018-08-30T16:24:48.917Z,59.43
2018-08-30T16:27:16.533Z,59.54
2018-08-30T16:29:45.068Z,59.52
2018-08-30T16:32:13.732Z,60.34
2018-08-30T16:34:40.536Z,60.42
2018-08-30T16:37:07.998Z,59.54
2018-08-30T16:39:34.684Z,59.58
2018-08-30T16:42:02.292Z,60.38
2018-08-30T16:44:29.028Z,59.72
2018-08-30T16:46:56.544Z,59.88
2018-08-30T16:49:24.526Z,59.82
2018-08-30T16:51:51.997Z,60.50
2018-08-30T16:54:19.666Z,59.71
2018-08-30T16:56:47.215Z,59.71
2018-08-30T16:59:14.900Z,60.04
2018-08-30T17:01:41.528Z,60.02
2018-08-30T17:04:09.172Z,59.95
2018-08-30T17:06:35.893Z,60.69
2018-08-30T17:09:02.613Z,60.16
2018-08-30T17:11:29.260Z,60.63
2018-08-30T17:13:56.871Z,60.61
2018-08-30T17:16:24.996Z,60.69
2018-08-30T17:18:53.575Z,60.49
2018-08-30T17:21:20.252Z,60.61
2018-08-30T17:23:47.824Z,60.01
2018-08-30T17:26:15.313Z,60.89
2018-08-30T17:28:43.456Z,60.91
2018-08-30T17:31:11.019Z,60.92
2018-08-30T17:33:38.574Z,60.26
2018-08-30T17:36:06.120Z,60.48
2018-08-30T17:38:33.838Z,61.01
2018-08-30T17:41:01.400Z,60.79
2018-08-30T17:43:28.088Z,60.96
2018-08-30T17:45:54.787Z,61.09
2018-08-30T17:48:21.480Z,60.08
2018-08-30T17:50:48.966Z,60.31
2018-08-30T17:53:15.918Z,60.99
2018-08-30T17:55:43.593Z,61.09
2018-08-30T17:58:11.285Z,61.12
2018-08-30T18:00:38.753Z,61.13
2018-08-30T18:03:06.365Z,60.51
2018-08-30T18:05:33.008Z,60.68
2018-08-30T18:07:59.661Z,61.13
2018-08-30T18:10:27.288Z,60.27
2018-08-30T18:12:53.935Z,61.23
2018-08-30T18:15:20.580Z,60.52
2018-08-30T18:17:47.222Z,60.41
2018-08-30T18:20:14.528Z,61.30
2018-08-30T18:22:42.195Z,60.40
2018-08-30T18:25:09.536Z,61.51
2018-08-30T18:27:37.053Z,60.44
2018-08-30T18:30:05.328Z,60.71
2018-08-30T18:32:31.986Z,60.71
2018-08-30T18:34:58.690Z,60.79
2018-08-30T18:37:25.293Z,61.08
2018-08-30T18:39:51.952Z,60.82
2018-08-30T18:42:18.619Z,60.98
2018-08-30T18:44:45.323Z,61.66
2018-08-30T18:47:11.960Z,60.65
2018-08-30T18:49:38.650Z,61.44
2018-08-30T18:52:05.412Z,61.55
2018-08-30T18:54:32.068Z,61.57
2018-08-30T18:56:58.709Z,60.75
2018-08-30T18:59:25.352Z,60.79
2018-08-30T19:01:52.044Z,61.08
2018-08-30T19:04:18.667Z,60.79
2018-08-30T19:06:45.317Z,61.50
2018-08-30T19:09:13.882Z,61.71
2018-08-30T19:11:42.118Z,61.37
2018-08-30T19:14:09.905Z,61.65
2018-08-30T19:16:42.339Z,61.62
2018-08-30T19:19:11.901Z,61.19
2018-08-30T19:21:39.380Z,62.05
2018-08-30T19:24:08.657Z,61.13
2018-08-30T19:26:36.325Z,61.87
2018-08-30T19:29:03.999Z,61.24
2018-08-30T19:31:30.683Z,61.90
2018-08-30T19:33:57.352Z,61.28
2018-08-30T19:36:27.542Z,62.00
2018-08-30T19:38:56.215Z,62.09
2018-08-30T19:41:23.797Z,61.08
2018-08-30T19:43:51.505Z,61.15
2018-08-30T19:46:18.565Z,61.61
2018-08-30T19:48:45.202Z,61.06
2018-08-30T19:51:11.836Z,61.15
2018-08-30T19:53:38.488Z,61.01
2018-08-30T19:56:05.204Z,61.18
2018-08-30T19:58:31.877Z,61.91
2018-08-30T20:00:58.481Z,61.97
2018-08-30T20:03:25.149Z,62.04
2018-08-30T20:05:53.777Z,62.06
2018-08-30T20:08:21.432Z,61.29
2018-08-30T20:10:48.968Z,62.41
2018-08-30T20:13:15.606Z,62.11
2018-08-30T20:15:44.251Z,61.77
2018-08-30T20:18:11.813Z,62.13
2018-08-30T20:20:39.070Z,61.29
2018-08-30T20:23:06.613Z,61.26
2018-08-30T20:25:34.089Z,62.13
2018-08-30T20:28:01.713Z,61.80
2018-08-30T20:30:29.308Z,62.10
2018-08-30T20:32:56.944Z,61.47
2018-08-30T20:35:24.653Z,61.33
2018-08-30T20:37:52.134Z,61.66
2018-08-30T20:40:19.747Z,62.18
2018-08-30T20:42:47.309Z,62.17
2018-08-30T20:45:15.405Z,61.80
2018-08-30T20:47:42.101Z,61.43
2018-08-30T20:50:09.700Z,61.98
2018-08-30T20:52:37.368Z,62.40
2018-08-30T20:55:04.000Z,62.39
2018-08-30T20:57:31.524Z,61.61
2018-08-30T20:59:58.208Z,61.46
2018-08-30T21:02:25.302Z,61.19
2018-08-30T21:04:53.009Z,62.11
2018-08-30T21:07:20.724Z,62.23
2018-08-30T21:09:48.224Z,61.44
2018-08-30T21:12:15.877Z,62.51
2018-08-30T21:14:44.665Z,61.42
2018-08-30T21:17:11.349Z,61.61
2018-08-30T21:19:39.222Z,61.64
2018-08-30T21:22:06.013Z,61.70
2018-08-30T21:24:33.656Z,62.40
2018-08-30T21:27:00.295Z,61.61
2018-08-30T21:29:27.896Z,62.19
2018-08-30T21:31:54.548Z,61.30
2018-08-30T21:34:22.152Z,61.68
2018-08-30T21:36:48.792Z,61.30
2018-08-30T21:39:16.292Z,61.89
2018-08-30T21:41:44.880Z,61.73
2018-08-30T21:44:13.181Z,61.92
2018-08-30T21:46:40.849Z,61.55
2018-08-30T21:49:08.536Z,61.76
2018-08-30T21:51:36.073Z,61.74
2018-08-30T21:54:02.717Z,61.36
2018-08-30T21:56:29.385Z,62.29
2018-08-30T21:58:56.072Z,61.73
2018-08-30T22:01:23.644Z,62.75
2018-08-30T22:03:51.204Z,62.00
2018-08-30T22:06:18.804Z,62.27
2018-08-30T22:08:46.333Z,61.76
2018-08-30T22:11:13.508Z,62.21
2018-08-30T22:13:40.164Z,61.95
2018-08-30T22:16:08.044Z,61.48
2018-08-30T22:18:35.060Z,61.74
2018-08-30T22:21:02.548Z,61.86
2018-08-30T22:23:29.231Z,61.67
2018-08-30T22:25:56.756Z,62.41
2018-08-30T22:28:24.593Z,62.06
2018-08-30T22:30:52.056Z,62.89
2018-08-30T22:33:19.599Z,62.08
2018-08-30T22:35:47.868Z,62.41
2018-08-30T22:38:15.489Z,61.64
2018-08-30T22:40:44.224Z,61.87
2018-08-30T22:43:11.716Z,62.21
2018-08-30T22:45:38.610Z,62.10
2018-08-30T22:48:06.217Z,62.31
2018-08-30T22:50:33.863Z,61.40
2018-08-30T22:53:01.418Z,62.46
2018-08-30T22:55:29.116Z,62.09
2018-08-30T22:57:56.770Z,61.58
2018-08-30T23:00:25.905Z,61.01
2018-08-30T23:02:52.553Z,62.67
2018-08-30T23:05:20.049Z,61.95
2018-08-30T23:07:46.728Z,61.93
2018-08-30T23:10:15.604Z,61.48
2018-08-30T23:12:44.171Z,62.29
2018-08-30T23:15:11.644Z,62.03
2018-08-30T23:17:39.289Z,61.99
2018-08-30T23:20:06.928Z,62.49
2018-08-30T23:22:34.528Z,62.62
2018-08-30T23:25:02.200Z,62.51
2018-08-30T23:27:28.888Z,61.98
2018-08-30T23:29:56.316Z,62.45
2018-08-30T23:32:24.226Z,61.47
2018-08-30T23:34:50.862Z,61.80
2018-08-30T23:37:17.500Z,62.80
2018-08-30T23:39:45.952Z,61.25
2018-08-30T23:42:13.641Z,61.33
2018-08-30T23:44:40.300Z,62.58
2018-08-30T23:47:07.910Z,61.63
2018-08-30T23:49:35.505Z,61.31
2018-08-30T23:52:02.150Z,62.53
2018-08-30T23:54:28.871Z,62.75
2018-08-30T23:56:55.555Z,62.01
2018-08-30T23:59:27.806Z,62.77
